sensor_id;sensor_type;location;lat;lon;timestamp;pressure;altitude;pressure_sealevel;temperature;humidity
10064;BME280;5071;52.360;13.134;2023-07-08T00:00:33;101576.16;;;14.82;84.03
10064;BME280;5071;52.360;13.134;2023-07-08T00:05:35;101578.16;;;14.67;84.61
10064;BME280;5071;52.360;13.134;2023-07-08T00:10:39;101583.59;;;14.61;84.43
10064;BME280;5071;52.360;13.134;2023-07-08T00:15:41;101579.22;;;14.54;85.21
10064;BME280;5071;52.360;13.134;2023-07-08T00:20:46;101576.69;;;14.45;85.68
10064;BME280;5071;52.360;13.134;2023-07-08T00:25:50;101567.06;;;14.34;85.48
10064;BME280;5071;52.360;13.134;2023-07-08T00:30:52;101556.50;;;14.27;86.68
10064;BME280;5071;52.360;13.134;2023-07-08T00:35:55;101564.56;;;14.22;86.79
10064;BME280;5071;52.360;13.134;2023-07-08T00:41:06;101561.13;;;14.14;85.99
10064;BME280;5071;52.360;13.134;2023-07-08T00:46:18;101563.00;;;14.06;86.01
10064;BME280;5071;52.360;13.134;2023-07-08T00:51:22;101559.66;;;13.91;86.41
10064;BME280;5071;52.360;13.134;2023-07-08T00:56:29;101561.56;;;13.82;86.68
10064;BME280;5071;52.360;13.134;2023-07-08T01:01:35;101571.41;;;13.75;87.66
10064;BME280;5071;52.360;13.134;2023-07-08T01:06:41;101567.00;;;13.72;88.71
10064;BME280;5071;52.360;13.134;2023-07-08T01:11:47;101576.84;;;13.67;88.48
10064;BME280;5071;52.360;13.134;2023-07-08T01:16:50;101568.94;;;13.56;88.24
10064;BME280;5071;52.360;13.134;2023-07-08T01:21:59;101561.97;;;13.48;89.02
10064;BME280;5071;52.360;13.134;2023-07-08T01:27:03;101564.66;;;13.43;89.27
10064;BME280;5071;52.360;13.134;2023-07-08T01:32:08;101556.75;;;13.35;90.08
10064;BME280;5071;52.360;13.134;2023-07-08T01:37:13;101556.81;;;13.28;90.08
10064;BME280;5071;52.360;13.134;2023-07-08T01:42:16;101566.59;;;13.24;90.15
10064;BME280;5071;52.360;13.134;2023-07-08T01:47:20;101556.91;;;13.17;90.61
10064;BME280;5071;52.360;13.134;2023-07-08T01:52:25;101552.50;;;13.11;91.36
10064;BME280;5071;52.360;13.134;2023-07-08T01:57:27;101550.75;;;13.10;90.68
10064;BME280;5071;52.360;13.134;2023-07-08T02:02:29;101554.31;;;13.09;90.75
10064;BME280;5071;52.360;13.134;2023-07-08T02:07:32;101560.66;;;12.99;90.88
10064;BME280;5071;52.360;13.134;2023-07-08T02:12:34;101554.50;;;12.89;91.74
10064;BME280;5071;52.360;13.134;2023-07-08T02:17:37;101558.00;;;12.93;91.57
10064;BME280;5071;52.360;13.134;2023-07-08T02:22:41;101551.00;;;12.82;91.70
10064;BME280;5071;52.360;13.134;2023-07-08T02:27:42;101554.63;;;12.74;92.75
10064;BME280;5071;52.360;13.134;2023-07-08T02:32:45;101552.00;;;12.69;92.54
10064;BME280;5071;52.360;13.134;2023-07-08T02:37:48;101552.88;;;12.71;93.55
10064;BME280;5071;52.360;13.134;2023-07-08T02:42:50;101557.38;;;12.64;93.71
10064;BME280;5071;52.360;13.134;2023-07-08T02:47:52;101551.22;;;12.55;93.68
10064;BME280;5071;52.360;13.134;2023-07-08T02:52:56;101553.03;;;12.51;94.05
10064;BME280;5071;52.360;13.134;2023-07-08T02:57:58;101552.16;;;12.51;94.03
10064;BME280;5071;52.360;13.134;2023-07-08T03:03:00;101537.84;;;12.62;93.95
10064;BME280;5071;52.360;13.134;2023-07-08T03:08:04;101534.25;;;12.68;92.90
10064;BME280;5071;52.360;13.134;2023-07-08T03:13:06;101537.94;;;12.52;92.96
10064;BME280;5071;52.360;13.134;2023-07-08T03:18:08;101537.94;;;12.52;93.70
10064;BME280;5071;52.360;13.134;2023-07-08T03:23:12;101515.75;;;12.50;93.85
10064;BME280;5071;52.360;13.134;2023-07-08T03:28:14;101514.94;;;12.41;94.01
10064;BME280;5071;52.360;13.134;2023-07-08T03:33:16;101542.31;;;12.57;94.35
10064;BME280;5071;52.360;13.134;2023-07-08T03:38:20;101532.56;;;12.58;93.85
10064;BME280;5071;52.360;13.134;2023-07-08T03:43:21;101546.75;;;12.60;93.95
10064;BME280;5071;52.360;13.134;2023-07-08T03:48:23;101535.84;;;12.91;92.51
10064;BME280;5071;52.360;13.134;2023-07-08T03:53:27;101536.75;;;12.88;92.39
10064;BME280;5071;52.360;13.134;2023-07-08T03:58:29;101536.69;;;12.93;92.96
10064;BME280;5071;52.360;13.134;2023-07-08T04:03:30;101532.22;;;12.96;93.11
10064;BME280;5071;52.360;13.134;2023-07-08T04:08:34;101530.31;;;13.09;93.08
10064;BME280;5071;52.360;13.134;2023-07-08T04:13:35;101539.06;;;13.23;92.71
10064;BME280;5071;52.360;13.134;2023-07-08T04:18:37;101533.47;;;13.50;92.72
10064;BME280;5071;52.360;13.134;2023-07-08T04:23:41;101531.28;;;13.81;91.94
10064;BME280;5071;52.360;13.134;2023-07-08T04:28:43;101526.91;;;14.39;90.81
10064;BME280;5071;52.360;13.134;2023-07-08T04:33:45;101540.69;;;16.85;86.59
10064;BME280;5071;52.360;13.134;2023-07-08T04:38:49;101541.34;;;20.25;68.08
10064;BME280;5071;52.360;13.134;2023-07-08T04:43:51;101537.16;;;22.78;59.35
10064;BME280;5071;52.360;13.134;2023-07-08T04:48:53;101557.41;;;24.71;53.26
10064;BME280;5071;52.360;13.134;2023-07-08T04:53:56;101548.78;;;26.26;47.72
10064;BME280;5071;52.360;13.134;2023-07-08T04:58:58;101554.66;;;27.54;44.67
10064;BME280;5071;52.360;13.134;2023-07-08T05:04:00;101565.09;;;27.34;43.26
10064;BME280;5071;52.360;13.134;2023-07-08T05:09:03;101553.94;;;28.15;43.91
10064;BME280;5071;52.360;13.134;2023-07-08T05:14:06;101550.94;;;27.68;42.86
10064;BME280;5071;52.360;13.134;2023-07-08T05:19:08;101568.31;;;29.26;40.72
10064;BME280;5071;52.360;13.134;2023-07-08T05:24:11;101568.59;;;30.58;38.90
10064;BME280;5071;52.360;13.134;2023-07-08T05:29:13;101568.72;;;31.00;37.43
10064;BME280;5071;52.360;13.134;2023-07-08T05:34:15;101569.44;;;31.96;35.38
10064;BME280;5071;52.360;13.134;2023-07-08T05:39:19;101570.06;;;32.41;34.85
10064;BME280;5071;52.360;13.134;2023-07-08T05:44:21;101568.91;;;32.43;35.65
10064;BME280;5071;52.360;13.134;2023-07-08T05:49:23;101565.19;;;33.42;32.77
10064;BME280;5071;52.360;13.134;2023-07-08T05:54:26;101570.09;;;33.48;32.50
10064;BME280;5071;52.360;13.134;2023-07-08T05:59:28;101579.56;;;33.16;33.55
10064;BME280;5071;52.360;13.134;2023-07-08T06:04:31;101580.22;;;33.67;32.29
10064;BME280;5071;52.360;13.134;2023-07-08T06:09:34;101576.28;;;34.07;31.18
10064;BME280;5071;52.360;13.134;2023-07-08T06:14:36;101579.88;;;35.17;31.16
10064;BME280;5071;52.360;13.134;2023-07-08T06:19:38;101576.66;;;36.00;28.65
10064;BME280;5071;52.360;13.134;2023-07-08T06:24:41;101581.78;;;35.34;30.42
10064;BME280;5071;52.360;13.134;2023-07-08T06:29:44;101581.56;;;36.06;29.44
10064;BME280;5071;52.360;13.134;2023-07-08T06:34:46;101571.38;;;36.15;27.57
10064;BME280;5071;52.360;13.134;2023-07-08T06:39:49;101573.34;;;36.23;26.70
10064;BME280;5071;52.360;13.134;2023-07-08T06:44:51;101578.53;;;36.26;29.28
10064;BME280;5071;52.360;13.134;2023-07-08T06:49:54;101571.19;;;36.59;26.44
10064;BME280;5071;52.360;13.134;2023-07-08T06:55:02;101570.16;;;35.75;26.77
10064;BME280;5071;52.360;13.134;2023-07-08T07:00:07;101562.69;;;36.01;30.47
10064;BME280;5071;52.360;13.134;2023-07-08T07:05:11;101575.41;;;37.62;26.56
10064;BME280;5071;52.360;13.134;2023-07-08T07:10:23;101575.59;;;37.27;28.06
10064;BME280;5071;52.360;13.134;2023-07-08T07:15:26;101573.53;;;38.10;25.26
10064;BME280;5071;52.360;13.134;2023-07-08T07:20:30;101567.81;;;35.62;26.31
10064;BME280;5071;52.360;13.134;2023-07-08T07:25:34;101560.31;;;38.20;25.36
10064;BME280;5071;52.360;13.134;2023-07-08T07:30:37;101569.13;;;37.76;25.08
10064;BME280;5071;52.360;13.134;2023-07-08T07:35:43;101559.50;;;37.14;27.09
10064;BME280;5071;52.360;13.134;2023-07-08T07:40:46;101560.88;;;37.35;24.94
10064;BME280;5071;52.360;13.134;2023-07-08T07:45:50;101563.09;;;37.64;23.41
10064;BME280;5071;52.360;13.134;2023-07-08T07:50:53;101561.91;;;36.76;25.82
10064;BME280;5071;52.360;13.134;2023-07-08T07:55:58;101554.94;;;36.56;24.91
10064;BME280;5071;52.360;13.134;2023-07-08T08:01:01;101551.03;;;35.55;26.14
10064;BME280;5071;52.360;13.134;2023-07-08T08:06:05;101550.38;;;34.73;27.71
10064;BME280;5071;52.360;13.134;2023-07-08T08:11:10;101553.59;;;35.75;25.99
10064;BME280;5071;52.360;13.134;2023-07-08T08:16:13;101555.97;;;36.04;23.86
10064;BME280;5071;52.360;13.134;2023-07-08T08:21:16;101552.94;;;37.96;23.93
10064;BME280;5071;52.360;13.134;2023-07-08T08:26:20;101549.94;;;38.45;23.37
10064;BME280;5071;52.360;13.134;2023-07-08T08:31:23;101563.13;;;37.40;23.14
10064;BME280;5071;52.360;13.134;2023-07-08T08:36:26;101558.78;;;38.72;20.73
10064;BME280;5071;52.360;13.134;2023-07-08T08:41:33;101564.13;;;37.63;22.89
10064;BME280;5071;52.360;13.134;2023-07-08T08:46:40;101564.00;;;37.40;21.18
10064;BME280;5071;52.360;13.134;2023-07-08T08:51:43;101559.06;;;36.44;23.03
10064;BME280;5071;52.360;13.134;2023-07-08T08:56:54;101555.78;;;38.27;20.78
10064;BME280;5071;52.360;13.134;2023-07-08T09:02:00;101559.69;;;38.41;20.14
10064;BME280;5071;52.360;13.134;2023-07-08T09:07:07;101556.94;;;38.64;20.79
10064;BME280;5071;52.360;13.134;2023-07-08T09:12:14;101569.00;;;40.30;15.78
10064;BME280;5071;52.360;13.134;2023-07-08T09:17:22;101563.97;;;39.74;16.74
10064;BME280;5071;52.360;13.134;2023-07-08T09:22:32;101562.63;;;39.70;17.17
10064;BME280;5071;52.360;13.134;2023-07-08T09:27:38;101553.88;;;38.82;17.82
10064;BME280;5071;52.360;13.134;2023-07-08T09:32:40;101558.66;;;39.12;18.27
10064;BME280;5071;52.360;13.134;2023-07-08T09:37:45;101550.84;;;38.69;17.24
10064;BME280;5071;52.360;13.134;2023-07-08T09:42:53;101553.31;;;40.08;18.37
10064;BME280;5071;52.360;13.134;2023-07-08T09:48:01;101555.38;;;41.43;15.78
10064;BME280;5071;52.360;13.134;2023-07-08T09:53:04;101558.97;;;40.51;15.39
10064;BME280;5071;52.360;13.134;2023-07-08T09:58:13;101542.69;;;39.52;17.25
10064;BME280;5071;52.360;13.134;2023-07-08T10:03:17;101549.16;;;39.44;16.46
10064;BME280;5071;52.360;13.134;2023-07-08T10:08:23;101556.25;;;38.85;16.18
10064;BME280;5071;52.360;13.134;2023-07-08T10:13:35;101538.34;;;38.42;17.95
10064;BME280;5071;52.360;13.134;2023-07-08T10:18:40;101552.47;;;40.80;17.13
10064;BME280;5071;52.360;13.134;2023-07-08T10:23:50;101551.28;;;40.16;16.12
10064;BME280;5071;52.360;13.134;2023-07-08T10:29:04;101549.56;;;39.56;17.03
10064;BME280;5071;52.360;13.134;2023-07-08T10:34:21;101540.56;;;39.54;17.16
10064;BME280;5071;52.360;13.134;2023-07-08T10:39:42;101537.66;;;37.44;18.10
10064;BME280;5071;52.360;13.134;2023-07-08T10:44:56;101533.41;;;39.06;18.81
10064;BME280;5071;52.360;13.134;2023-07-08T10:50:16;101527.22;;;37.79;19.63
10064;BME280;5071;52.360;13.134;2023-07-08T10:55:28;101526.22;;;36.49;19.22
10064;BME280;5071;52.360;13.134;2023-07-08T11:00:38;101521.91;;;35.61;20.46
10064;BME280;5071;52.360;13.134;2023-07-08T11:05:44;101523.81;;;36.46;21.55
10064;BME280;5071;52.360;13.134;2023-07-08T11:10:50;101513.75;;;35.86;20.10
10064;BME280;5071;52.360;13.134;2023-07-08T11:16:15;101504.97;;;35.30;22.85
10064;BME280;5071;52.360;13.134;2023-07-08T11:21:23;101499.34;;;35.74;20.49
10064;BME280;5071;52.360;13.134;2023-07-08T11:26:30;101495.91;;;35.46;21.55
10064;BME280;5071;52.360;13.134;2023-07-08T11:31:36;101495.81;;;34.67;21.72
10064;BME280;5071;52.360;13.134;2023-07-08T11:36:39;101486.78;;;34.11;22.83
10064;BME280;5071;52.360;13.134;2023-07-08T11:41:41;101487.78;;;34.56;24.55
10064;BME280;5071;52.360;13.134;2023-07-08T11:46:54;101483.69;;;33.68;23.53
10064;BME280;5071;52.360;13.134;2023-07-08T11:51:57;101482.84;;;33.58;23.57
10064;BME280;5071;52.360;13.134;2023-07-08T11:57:04;101476.75;;;33.17;24.20
10064;BME280;5071;52.360;13.134;2023-07-08T12:02:13;101465.19;;;33.51;22.77
10064;BME280;5071;52.360;13.134;2023-07-08T12:07:17;101471.84;;;33.86;22.81
10064;BME280;5071;52.360;13.134;2023-07-08T12:12:24;101464.34;;;33.41;24.36
10064;BME280;5071;52.360;13.134;2023-07-08T12:17:31;101465.00;;;33.62;23.72
10064;BME280;5071;52.360;13.134;2023-07-08T12:22:33;101456.84;;;33.70;23.33
10064;BME280;5071;52.360;13.134;2023-07-08T12:27:35;101450.28;;;34.45;22.77
10064;BME280;5071;52.360;13.134;2023-07-08T12:32:39;101445.22;;;34.76;23.59
10064;BME280;5071;52.360;13.134;2023-07-08T12:37:41;101446.25;;;34.21;24.43
10064;BME280;5071;52.360;13.134;2023-07-08T12:42:44;101443.50;;;34.75;23.13
10064;BME280;5071;52.360;13.134;2023-07-08T12:47:49;101443.81;;;33.73;23.17
10064;BME280;5071;52.360;13.134;2023-07-08T12:52:52;101439.00;;;33.75;23.63
10064;BME280;5071;52.360;13.134;2023-07-08T12:57:54;101435.22;;;34.57;23.24
10064;BME280;5071;52.360;13.134;2023-07-08T13:03:03;101434.25;;;33.95;23.48
10064;BME280;5071;52.360;13.134;2023-07-08T13:08:09;101427.44;;;34.53;21.91
10064;BME280;5071;52.360;13.134;2023-07-08T13:13:15;101430.63;;;34.12;22.77
10064;BME280;5071;52.360;13.134;2023-07-08T13:18:28;101425.22;;;34.74;21.94
10064;BME280;5071;52.360;13.134;2023-07-08T13:23:32;101423.44;;;34.47;22.73
10064;BME280;5071;52.360;13.134;2023-07-08T13:28:37;101423.63;;;34.54;22.82
10064;BME280;5071;52.360;13.134;2023-07-08T13:33:46;101409.19;;;35.04;22.52
10064;BME280;5071;52.360;13.134;2023-07-08T13:38:48;101416.22;;;34.72;24.19
10064;BME280;5071;52.360;13.134;2023-07-08T13:43:52;101410.44;;;33.76;22.91
10064;BME280;5071;52.360;13.134;2023-07-08T13:48:55;101415.09;;;34.65;22.12
10064;BME280;5071;52.360;13.134;2023-07-08T13:53:59;101402.78;;;34.95;22.32
10064;BME280;5071;52.360;13.134;2023-07-08T13:59:04;101401.09;;;34.76;21.86
10064;BME280;5071;52.360;13.134;2023-07-08T14:04:10;101407.34;;;34.60;21.89
10064;BME280;5071;52.360;13.134;2023-07-08T14:09:15;101413.47;;;34.72;22.09
10064;BME280;5071;52.360;13.134;2023-07-08T14:14:17;101398.06;;;34.43;21.84
10064;BME280;5071;52.360;13.134;2023-07-08T14:19:23;101391.63;;;34.17;22.90
10064;BME280;5071;52.360;13.134;2023-07-08T14:24:26;101393.78;;;33.12;22.85
10064;BME280;5071;52.360;13.134;2023-07-08T14:29:28;101393.41;;;33.35;22.49
10064;BME280;5071;52.360;13.134;2023-07-08T14:34:33;101397.63;;;33.57;23.04
10064;BME280;5071;52.360;13.134;2023-07-08T14:39:35;101384.66;;;33.49;23.03
10064;BME280;5071;52.360;13.134;2023-07-08T14:44:38;101393.44;;;33.80;23.11
10064;BME280;5071;52.360;13.134;2023-07-08T14:49:42;101378.41;;;34.20;21.86
10064;BME280;5071;52.360;13.134;2023-07-08T14:54:44;101382.13;;;33.83;23.10
10064;BME280;5071;52.360;13.134;2023-07-08T14:59:47;101387.50;;;33.57;22.28
10064;BME280;5071;52.360;13.134;2023-07-08T15:04:50;101381.13;;;33.57;23.50
10064;BME280;5071;52.360;13.134;2023-07-08T15:09:52;101380.22;;;33.38;22.56
10064;BME280;5071;52.360;13.134;2023-07-08T15:14:54;101377.31;;;33.67;23.01
10064;BME280;5071;52.360;13.134;2023-07-08T15:19:57;101370.56;;;33.52;22.41
10064;BME280;5071;52.360;13.134;2023-07-08T15:25:00;101368.78;;;33.33;22.68
10064;BME280;5071;52.360;13.134;2023-07-08T15:30:02;101372.00;;;33.28;22.14
10064;BME280;5071;52.360;13.134;2023-07-08T15:35:11;101360.72;;;33.49;22.55
10064;BME280;5071;52.360;13.134;2023-07-08T15:40:14;101370.06;;;33.66;22.44
10064;BME280;5071;52.360;13.134;2023-07-08T15:45:20;101355.84;;;33.16;22.95
10064;BME280;5071;52.360;13.134;2023-07-08T15:50:26;101368.50;;;33.36;23.67
10064;BME280;5071;52.360;13.134;2023-07-08T15:55:30;101369.25;;;33.56;23.79
10064;BME280;5071;52.360;13.134;2023-07-08T16:00:34;101356.28;;;33.39;23.33
10064;BME280;5071;52.360;13.134;2023-07-08T16:05:39;101367.91;;;33.33;23.07
10064;BME280;5071;52.360;13.134;2023-07-08T16:10:41;101365.06;;;33.24;24.18
10064;BME280;5071;52.360;13.134;2023-07-08T16:15:45;101361.91;;;33.19;22.83
10064;BME280;5071;52.360;13.134;2023-07-08T16:20:48;101371.13;;;33.56;22.61
10064;BME280;5071;52.360;13.134;2023-07-08T16:25:51;101369.44;;;33.45;22.91
10064;BME280;5071;52.360;13.134;2023-07-08T16:30:54;101365.47;;;33.57;23.25
10064;BME280;5071;52.360;13.134;2023-07-08T16:35:58;101361.63;;;33.12;23.54
10064;BME280;5071;52.360;13.134;2023-07-08T16:41:00;101367.16;;;33.40;23.97
10064;BME280;5071;52.360;13.134;2023-07-08T16:46:03;101362.13;;;33.36;23.41
10064;BME280;5071;52.360;13.134;2023-07-08T16:51:12;101362.78;;;33.10;24.02
10064;BME280;5071;52.360;13.134;2023-07-08T16:56:18;101355.84;;;33.06;23.45
10064;BME280;5071;52.360;13.134;2023-07-08T17:01:23;101360.59;;;32.76;24.29
10064;BME280;5071;52.360;13.134;2023-07-08T17:06:27;101356.31;;;32.25;24.30
10064;BME280;5071;52.360;13.134;2023-07-08T17:11:29;101358.06;;;32.06;24.78
10064;BME280;5071;52.360;13.134;2023-07-08T17:16:32;101356.84;;;31.99;25.08
10064;BME280;5071;52.360;13.134;2023-07-08T17:21:37;101351.38;;;32.19;24.68
10064;BME280;5071;52.360;13.134;2023-07-08T17:26:39;101351.94;;;32.51;26.55
10064;BME280;5071;52.360;13.134;2023-07-08T17:31:42;101356.75;;;32.10;25.45
10064;BME280;5071;52.360;13.134;2023-07-08T17:36:51;101350.63;;;31.97;24.39
10064;BME280;5071;52.360;13.134;2023-07-08T17:41:52;101350.31;;;31.71;25.01
10064;BME280;5071;52.360;13.134;2023-07-08T17:46:57;101342.53;;;31.86;25.63
10064;BME280;5071;52.360;13.134;2023-07-08T17:52:03;101345.72;;;32.01;26.19
10064;BME280;5071;52.360;13.134;2023-07-08T17:57:05;101345.88;;;31.99;25.02
10064;BME280;5071;52.360;13.134;2023-07-08T18:02:14;101340.91;;;31.64;25.71
10064;BME280;5071;52.360;13.134;2023-07-08T18:07:18;101339.97;;;31.44;25.64
10064;BME280;5071;52.360;13.134;2023-07-08T18:12:20;101345.13;;;31.27;25.83
10064;BME280;5071;52.360;13.134;2023-07-08T18:17:23;101349.63;;;30.97;28.05
10064;BME280;5071;52.360;13.134;2023-07-08T18:22:27;101342.28;;;30.77;28.55
10064;BME280;5071;52.360;13.134;2023-07-08T18:27:29;101344.81;;;30.69;28.11
10064;BME280;5071;52.360;13.134;2023-07-08T18:32:31;101336.00;;;30.44;27.53
10064;BME280;5071;52.360;13.134;2023-07-08T18:37:35;101348.59;;;30.14;28.52
10064;BME280;5071;52.360;13.134;2023-07-08T18:42:37;101345.75;;;29.72;29.43
10064;BME280;5071;52.360;13.134;2023-07-08T18:47:39;101345.56;;;29.41;29.82
10064;BME280;5071;52.360;13.134;2023-07-08T18:52:43;101353.78;;;28.96;31.65
10064;BME280;5071;52.360;13.134;2023-07-08T18:57:46;101345.03;;;28.57;32.59
10064;BME280;5071;52.360;13.134;2023-07-08T19:02:51;101362.44;;;28.08;32.78
10064;BME280;5071;52.360;13.134;2023-07-08T19:07:55;101362.84;;;27.53;37.58
10064;BME280;5071;52.360;13.134;2023-07-08T19:12:56;101363.84;;;26.90;38.61
10064;BME280;5071;52.360;13.134;2023-07-08T19:17:59;101366.34;;;26.27;40.08
10064;BME280;5071;52.360;13.134;2023-07-08T19:23:05;101367.63;;;25.67;41.47
10064;BME280;5071;52.360;13.134;2023-07-08T19:28:10;101365.66;;;25.28;43.11
10064;BME280;5071;52.360;13.134;2023-07-08T19:33:15;101366.41;;;24.87;44.12
10064;BME280;5071;52.360;13.134;2023-07-08T19:38:19;101380.25;;;24.53;44.68
10064;BME280;5071;52.360;13.134;2023-07-08T19:43:25;101386.97;;;24.16;45.25
10064;BME280;5071;52.360;13.134;2023-07-08T19:48:27;101407.25;;;24.24;42.76
10064;BME280;5071;52.360;13.134;2023-07-08T19:53:30;101418.91;;;25.01;40.68
10064;BME280;5071;52.360;13.134;2023-07-08T19:58:32;101428.69;;;25.18;40.67
10064;BME280;5071;52.360;13.134;2023-07-08T20:03:34;101433.75;;;25.10;41.15
10064;BME280;5071;52.360;13.134;2023-07-08T20:08:38;101442.66;;;24.98;42.25
10064;BME280;5071;52.360;13.134;2023-07-08T20:13:40;101442.66;;;24.83;43.23
10064;BME280;5071;52.360;13.134;2023-07-08T20:18:43;101452.69;;;24.67;43.17
10064;BME280;5071;52.360;13.134;2023-07-08T20:23:46;101463.94;;;24.61;43.86
10064;BME280;5071;52.360;13.134;2023-07-08T20:28:48;101463.53;;;24.51;43.96
10064;BME280;5071;52.360;13.134;2023-07-08T20:33:50;101468.09;;;24.51;43.82
10064;BME280;5071;52.360;13.134;2023-07-08T20:38:53;101472.94;;;24.45;43.80
10064;BME280;5071;52.360;13.134;2023-07-08T20:43:55;101483.97;;;24.42;43.84
10064;BME280;5071;52.360;13.134;2023-07-08T20:48:58;101492.84;;;24.30;43.71
10064;BME280;5071;52.360;13.134;2023-07-08T20:54:02;101487.22;;;24.17;43.66
10064;BME280;5071;52.360;13.134;2023-07-08T20:59:08;101494.25;;;24.05;44.06
10064;BME280;5071;52.360;13.134;2023-07-08T21:04:16;101501.41;;;23.91;44.06
10064;BME280;5071;52.360;13.134;2023-07-08T21:09:20;101496.59;;;23.80;43.93
10064;BME280;5071;52.360;13.134;2023-07-08T21:14:22;101500.00;;;23.83;42.99
10064;BME280;5071;52.360;13.134;2023-07-08T21:19:25;101507.75;;;23.74;42.73
10064;BME280;5071;52.360;13.134;2023-07-08T21:24:31;101510.81;;;23.67;42.90
10064;BME280;5071;52.360;13.134;2023-07-08T21:29:33;101503.03;;;23.44;43.51
10064;BME280;5071;52.360;13.134;2023-07-08T21:34:35;101505.94;;;23.23;44.15
10064;BME280;5071;52.360;13.134;2023-07-08T21:39:39;101508.78;;;23.22;44.15
10064;BME280;5071;52.360;13.134;2023-07-08T21:44:41;101496.00;;;22.89;45.68
10064;BME280;5071;52.360;13.134;2023-07-08T21:49:43;101504.53;;;22.81;45.07
10064;BME280;5071;52.360;13.134;2023-07-08T21:54:47;101509.63;;;22.70;44.87
10064;BME280;5071;52.360;13.134;2023-07-08T21:59:49;101518.19;;;22.61;45.15
10064;BME280;5071;52.360;13.134;2023-07-08T22:04:51;101516.59;;;22.57;45.54
10064;BME280;5071;52.360;13.134;2023-07-08T22:09:55;101532.72;;;22.41;45.76
10064;BME280;5071;52.360;13.134;2023-07-08T22:14:57;101531.19;;;22.35;46.28
10064;BME280;5071;52.360;13.134;2023-07-08T22:19:59;101527.16;;;22.25;46.25
10064;BME280;5071;52.360;13.134;2023-07-08T22:25:04;101526.88;;;21.93;47.79
10064;BME280;5071;52.360;13.134;2023-07-08T22:30:07;101527.44;;;21.81;48.93
10064;BME280;5071;52.360;13.134;2023-07-08T22:35:17;101525.09;;;21.54;49.07
10064;BME280;5071;52.360;13.134;2023-07-08T22:40:21;101521.69;;;21.49;48.79
10064;BME280;5071;52.360;13.134;2023-07-08T22:45:23;101533.03;;;21.36;50.06
10064;BME280;5071;52.360;13.134;2023-07-08T22:50:28;101526.56;;;21.00;51.66
10064;BME280;5071;52.360;13.134;2023-07-08T22:55:33;101528.00;;;20.66;53.25
10064;BME280;5071;52.360;13.134;2023-07-08T23:00:35;101539.50;;;20.71;53.51
10064;BME280;5071;52.360;13.134;2023-07-08T23:05:38;101547.63;;;20.47;52.71
10064;BME280;5071;52.360;13.134;2023-07-08T23:10:42;101545.47;;;20.11;54.18
10064;BME280;5071;52.360;13.134;2023-07-08T23:15:45;101548.31;;;19.85;55.53
10064;BME280;5071;52.360;13.134;2023-07-08T23:20:48;101537.31;;;19.66;57.76
10064;BME280;5071;52.360;13.134;2023-07-08T23:25:51;101545.06;;;19.50;57.50
10064;BME280;5071;52.360;13.134;2023-07-08T23:30:53;101539.25;;;19.37;58.17
10064;BME280;5071;52.360;13.134;2023-07-08T23:35:55;101540.72;;;19.22;58.62
10064;BME280;5071;52.360;13.134;2023-07-08T23:40:59;101539.84;;;19.20;59.78
10064;BME280;5071;52.360;13.134;2023-07-08T23:46:02;101535.16;;;19.01;59.43
10064;BME280;5071;52.360;13.134;2023-07-08T23:51:05;101535.00;;;18.78;60.71
10064;BME280;5071;52.360;13.134;2023-07-08T23:56:10;101534.75;;;18.59;61.70
